createdAt,value
2023-02-09T00:02:00.942Z,-4.50
2023-02-09T00:05:08.333Z,-4.56
2023-02-09T00:08:14.517Z,-4.55
2023-02-09T00:11:20.127Z,-4.55
2023-02-09T00:14:26.666Z,-4.56
2023-02-09T00:17:33.436Z,-4.51
2023-02-09T00:20:39.690Z,-4.46
2023-02-09T00:23:46.200Z,-4.42
2023-02-09T00:26:52.633Z,-4.40
2023-02-09T00:29:58.945Z,-4.40
2023-02-09T00:33:05.274Z,-4.39
2023-02-09T00:36:14.511Z,-4.39
2023-02-09T00:39:20.716Z,-4.41
2023-02-09T00:42:26.926Z,-4.45
2023-02-09T00:45:33.572Z,-4.56
2023-02-09T00:48:39.917Z,-4.69
2023-02-09T00:51:46.632Z,-4.74
2023-02-09T00:54:52.973Z,-4.79
2023-02-09T00:57:59.149Z,-4.82
2023-02-09T01:01:05.480Z,-4.84
2023-02-09T01:04:11.712Z,-4.85
2023-02-09T01:07:17.945Z,-4.84
2023-02-09T01:10:24.554Z,-4.81
2023-02-09T01:13:31.150Z,-4.81
2023-02-09T01:16:37.406Z,-4.91
2023-02-09T01:19:43.627Z,-4.99
2023-02-09T01:22:50.052Z,-5.06
2023-02-09T01:26:04.647Z,-5.14
2023-02-09T01:29:13.040Z,-5.20
2023-02-09T01:32:19.176Z,-5.25
2023-02-09T01:35:23.719Z,-5.29
2023-02-09T01:38:30.591Z,-5.33
2023-02-09T01:41:37.043Z,-5.36
2023-02-09T01:45:17.911Z,-5.41
2023-02-09T01:48:27.424Z,-5.42
2023-02-09T01:51:37.906Z,-5.41
2023-02-09T01:54:47.715Z,-5.41
2023-02-09T01:57:56.744Z,-5.43
2023-02-09T02:01:03.205Z,-5.45
2023-02-09T02:04:09.839Z,-5.45
2023-02-09T02:07:21.843Z,-5.46
2023-02-09T02:10:28.317Z,-5.51
2023-02-09T02:13:34.562Z,-5.56
2023-02-09T02:16:55.177Z,-5.58
2023-02-09T02:20:33.298Z,-5.60
2023-02-09T02:23:48.692Z,-5.60
2023-02-09T02:26:59.679Z,-5.67
2023-02-09T02:30:35.270Z,-5.69
2023-02-09T02:33:50.974Z,-5.70
2023-02-09T02:37:05.253Z,-5.70
2023-02-09T02:40:21.841Z,-5.71
2023-02-09T02:43:41.705Z,-5.71
2023-02-09T02:46:52.080Z,-5.72
2023-02-09T02:50:04.953Z,-5.70
2023-02-09T02:53:14.936Z,-5.66
2023-02-09T02:56:25.823Z,-5.65
2023-02-09T02:59:35.207Z,-5.67
2023-02-09T03:02:44.831Z,-5.67
2023-02-09T03:05:51.917Z,-5.65
2023-02-09T03:08:59.569Z,-5.67
2023-02-09T03:12:14.157Z,-5.69
2023-02-09T03:15:31.710Z,-5.69
2023-02-09T03:18:45.355Z,-5.68
2023-02-09T03:21:57.114Z,-5.65
2023-02-09T03:25:07.693Z,-5.61
2023-02-09T03:28:19.569Z,-5.57
2023-02-09T03:31:26.710Z,-5.56
2023-02-09T03:34:32.940Z,-5.57
2023-02-09T03:37:39.644Z,-5.60
2023-02-09T03:40:46.559Z,-5.62
2023-02-09T03:44:10.607Z,-5.63
2023-02-09T03:47:16.771Z,-5.65
2023-02-09T03:50:23.072Z,-5.69
2023-02-09T03:53:29.406Z,-5.73
2023-02-09T03:56:37.647Z,-5.76
2023-02-09T03:59:43.942Z,-5.80
2023-02-09T04:02:50.191Z,-5.85
2023-02-09T04:05:56.690Z,-5.89
2023-02-09T04:09:03.994Z,-5.92
2023-02-09T04:12:10.570Z,-5.95
2023-02-09T04:15:16.890Z,-5.98
2023-02-09T04:18:23.541Z,-5.98
2023-02-09T04:21:29.810Z,-5.98
2023-02-09T04:24:36.281Z,-5.98
2023-02-09T04:27:42.468Z,-5.98
2023-02-09T04:30:52.414Z,-5.99
2023-02-09T04:33:58.660Z,-6.06
2023-02-09T04:37:04.928Z,-6.14
2023-02-09T04:40:12.900Z,-6.17
2023-02-09T04:43:19.992Z,-6.18
2023-02-09T04:46:26.272Z,-6.19
2023-02-09T04:49:32.629Z,-6.20
2023-02-09T04:52:38.805Z,-6.20
2023-02-09T04:55:46.716Z,-6.16
2023-02-09T04:59:10.448Z,-6.14
2023-02-09T05:02:16.604Z,-6.09
2023-02-09T05:05:22.989Z,-6.05
2023-02-09T05:08:30.106Z,-6.04
2023-02-09T05:11:36.321Z,-6.04
2023-02-09T05:14:42.590Z,-6.04
2023-02-09T05:17:48.926Z,-6.03
2023-02-09T05:20:55.473Z,-6.04
2023-02-09T05:24:01.758Z,-6.07
2023-02-09T05:27:08.010Z,-6.13
2023-02-09T05:30:15.573Z,-6.16
2023-02-09T05:33:22.006Z,-6.17
2023-02-09T05:36:28.334Z,-6.17
2023-02-09T05:39:34.710Z,-6.19
2023-02-09T05:42:41.186Z,-6.19
2023-02-09T05:45:48.439Z,-6.17
2023-02-09T05:48:54.726Z,-6.15
2023-02-09T05:52:01.025Z,-6.12
2023-02-09T05:55:07.988Z,-6.09
2023-02-09T05:58:14.618Z,-6.10
2023-02-09T06:01:20.943Z,-6.08
2023-02-09T06:04:27.853Z,-6.08
2023-02-09T06:07:34.033Z,-6.09
2023-02-09T06:10:40.075Z,-6.16
2023-02-09T06:13:44.541Z,-6.24
2023-02-09T06:16:50.774Z,-6.29
2023-02-09T06:19:56.981Z,-6.31
2023-02-09T06:23:03.273Z,-6.32
2023-02-09T06:26:11.989Z,-6.35
2023-02-09T06:29:18.203Z,-6.37
2023-02-09T06:32:24.376Z,-6.45
2023-02-09T06:35:30.638Z,-6.51
2023-02-09T06:38:38.129Z,-6.53
2023-02-09T06:41:44.331Z,-6.50
2023-02-09T06:44:50.552Z,-6.46
2023-02-09T06:47:56.754Z,-6.39
2023-02-09T06:51:03.110Z,-6.33
2023-02-09T06:54:09.819Z,-6.28
2023-02-09T06:57:16.078Z,-6.25
2023-02-09T07:00:23.891Z,-6.20
2023-02-09T07:03:30.870Z,-6.10
2023-02-09T07:06:37.144Z,-6.01
2023-02-09T07:09:43.366Z,-5.91
2023-02-09T07:12:49.708Z,-5.85
2023-02-09T07:16:00.936Z,-5.83
2023-02-09T07:19:07.216Z,-5.76
2023-02-09T07:22:13.543Z,-5.69
2023-02-09T07:25:19.957Z,-5.61
2023-02-09T07:28:26.432Z,-5.52
2023-02-09T07:31:32.701Z,-5.43
2023-02-09T07:34:38.996Z,-5.35
2023-02-09T07:37:45.441Z,-5.29
2023-02-09T07:40:51.921Z,-5.25
2023-02-09T07:43:58.457Z,-5.23
2023-02-09T07:47:04.828Z,-5.19
2023-02-09T07:50:12.014Z,-5.13
2023-02-09T07:53:18.502Z,-5.07
2023-02-09T07:56:25.050Z,-4.97
2023-02-09T07:59:31.294Z,-4.86
2023-02-09T08:02:38.987Z,-4.73
2023-02-09T08:05:52.641Z,-4.61
2023-02-09T08:09:01.077Z,-4.48
2023-02-09T08:12:09.710Z,-4.36
2023-02-09T08:15:18.030Z,-4.22
2023-02-09T08:18:26.440Z,-4.09
2023-02-09T08:21:35.527Z,-3.94
2023-02-09T08:24:42.400Z,-3.78
2023-02-09T08:27:49.494Z,-3.62
2023-02-09T08:30:55.836Z,-3.47
2023-02-09T08:34:02.087Z,-3.35
2023-02-09T08:37:08.207Z,-3.24
2023-02-09T08:40:14.964Z,-3.13
2023-02-09T08:43:21.383Z,-3.05
2023-02-09T08:46:27.930Z,-2.90
2023-02-09T08:49:34.305Z,-2.75
2023-02-09T08:52:38.858Z,-2.62
2023-02-09T08:55:45.317Z,-2.51
2023-02-09T08:58:51.959Z,-2.36
2023-02-09T09:01:58.213Z,-2.22
2023-02-09T09:05:02.670Z,-2.09
2023-02-09T09:08:09.688Z,-2.00
2023-02-09T09:11:16.066Z,-1.85
2023-02-09T09:14:22.292Z,-1.70
2023-02-09T09:17:27.137Z,-1.53
2023-02-09T09:20:33.216Z,-1.38
2023-02-09T09:23:39.674Z,-1.23
2023-02-09T09:26:46.524Z,-1.08
2023-02-09T09:29:52.843Z,-0.93
2023-02-09T09:32:59.068Z,-0.77
2023-02-09T09:36:03.940Z,-0.58
2023-02-09T09:39:10.133Z,-0.39
2023-02-09T09:42:22.217Z,-0.16
2023-02-09T09:45:31.699Z,0.03
2023-02-09T09:48:44.625Z,0.27
2023-02-09T09:51:54.844Z,0.49
2023-02-09T09:55:02.540Z,0.70
2023-02-09T09:58:17.173Z,0.91
2023-02-09T10:01:23.508Z,1.12
2023-02-09T10:04:31.558Z,1.31
2023-02-09T10:07:39.129Z,1.51
2023-02-09T10:10:50.973Z,1.69
2023-02-09T10:13:58.640Z,1.87
2023-02-09T10:17:05.274Z,2.02
2023-02-09T10:20:13.437Z,2.16
2023-02-09T10:23:23.921Z,2.30
2023-02-09T10:26:32.326Z,2.47
2023-02-09T10:29:38.868Z,2.62
2023-02-09T10:32:46.471Z,2.78
2023-02-09T10:35:55.077Z,2.92
2023-02-09T10:39:19.904Z,3.10
2023-02-09T10:42:30.346Z,3.28
2023-02-09T10:45:42.024Z,3.45
2023-02-09T10:48:49.001Z,3.63
2023-02-09T10:52:07.177Z,3.80
2023-02-09T10:55:21.312Z,3.97
2023-02-09T10:58:31.392Z,4.14
2023-02-09T11:01:43.448Z,4.30
2023-02-09T11:04:50.083Z,4.44
2023-02-09T11:08:00.368Z,4.59
2023-02-09T11:11:10.452Z,4.73
2023-02-09T11:14:18.545Z,4.88
2023-02-09T11:17:36.531Z,5.06
2023-02-09T11:20:46.330Z,5.22
2023-02-09T11:24:03.234Z,4.87
2023-02-09T11:27:23.609Z,4.45
2023-02-09T11:30:45.909Z,4.18
2023-02-09T11:34:02.017Z,4.03
2023-02-09T11:37:21.356Z,3.93
2023-02-09T11:40:33.297Z,3.88
2023-02-09T11:43:42.495Z,3.87
2023-02-09T11:46:50.683Z,3.87
2023-02-09T11:49:59.322Z,3.91
2023-02-09T11:53:13.023Z,3.96
2023-02-09T11:56:21.209Z,4.06
2023-02-09T11:59:34.156Z,4.16
2023-02-09T12:02:52.188Z,4.25
2023-02-09T12:05:58.647Z,4.32
2023-02-09T12:09:09.864Z,4.41
2023-02-09T12:12:27.163Z,4.51
2023-02-09T12:15:43.001Z,4.60
2023-02-09T12:18:49.690Z,4.69
2023-02-09T12:21:55.976Z,4.77
2023-02-09T12:25:19.754Z,4.84
2023-02-09T12:28:46.991Z,4.91
2023-02-09T12:32:35.978Z,4.98
2023-02-09T12:35:43.576Z,5.07
2023-02-09T12:39:05.098Z,5.15
2023-02-09T12:42:31.328Z,5.23
2023-02-09T12:45:39.778Z,5.30
2023-02-09T12:49:04.522Z,5.36
2023-02-09T12:52:20.349Z,5.44
2023-02-09T12:55:27.375Z,5.52
2023-02-09T12:59:10.482Z,5.57
2023-02-09T13:02:28.178Z,5.64
2023-02-09T13:05:38.966Z,5.68
2023-02-09T13:08:53.555Z,5.73
2023-02-09T13:12:07.638Z,5.75
2023-02-09T13:15:19.331Z,5.73
2023-02-09T13:18:35.160Z,5.72
2023-02-09T13:21:48.538Z,5.72
2023-02-09T13:24:59.826Z,5.73
2023-02-09T13:28:16.395Z,5.71
2023-02-09T13:31:39.774Z,5.68
2023-02-09T13:34:55.458Z,5.66
2023-02-09T13:38:08.460Z,5.61
2023-02-09T13:41:28.492Z,5.54
2023-02-09T13:44:36.957Z,5.50
2023-02-09T13:47:49.395Z,5.46
2023-02-09T13:50:57.433Z,5.42
2023-02-09T13:54:05.101Z,5.40
2023-02-09T13:57:23.779Z,5.35
2023-02-09T14:00:37.486Z,5.29
2023-02-09T14:03:57.805Z,5.22
2023-02-09T14:07:08.499Z,5.16
2023-02-09T14:10:18.209Z,5.11
2023-02-09T14:13:28.836Z,5.05
2023-02-09T14:16:44.724Z,4.96
2023-02-09T14:20:00.390Z,4.89
2023-02-09T14:23:17.517Z,4.84
2023-02-09T14:26:27.714Z,4.78
2023-02-09T14:29:36.141Z,4.71
2023-02-09T14:32:45.569Z,4.64
2023-02-09T14:35:59.348Z,4.57
2023-02-09T14:39:14.036Z,4.50
2023-02-09T14:42:20.793Z,4.41
2023-02-09T14:45:39.420Z,4.36
2023-02-09T14:48:45.853Z,4.30
2023-02-09T14:51:51.209Z,4.23
2023-02-09T14:55:00.026Z,4.17
2023-02-09T14:58:13.944Z,4.08
2023-02-09T15:01:20.272Z,3.97
2023-02-09T15:04:24.817Z,3.87
2023-02-09T15:07:37.588Z,3.77
2023-02-09T15:10:48.526Z,3.65
2023-02-09T15:13:58.497Z,3.53
2023-02-09T15:17:11.106Z,3.41
2023-02-09T15:20:21.447Z,3.30
2023-02-09T15:23:27.934Z,3.19
2023-02-09T15:26:37.272Z,3.08
2023-02-09T15:29:43.418Z,2.98
2023-02-09T15:32:49.961Z,2.87
2023-02-09T15:35:59.551Z,2.75
2023-02-09T15:39:08.255Z,2.62
2023-02-09T15:42:35.502Z,2.49
2023-02-09T15:46:10.552Z,2.34
2023-02-09T15:49:16.822Z,2.20
2023-02-09T15:52:21.674Z,2.08
2023-02-09T15:55:29.096Z,1.97
2023-02-09T15:58:37.340Z,1.83
2023-02-09T16:01:43.768Z,1.68
2023-02-09T16:04:50.232Z,1.54
2023-02-09T16:07:55.123Z,1.39
2023-02-09T16:11:02.158Z,1.24
2023-02-09T16:14:17.772Z,1.09
2023-02-09T16:17:24.108Z,0.93
2023-02-09T16:20:29.115Z,0.80
2023-02-09T16:23:37.428Z,0.69
2023-02-09T16:26:43.633Z,0.57
2023-02-09T16:29:49.910Z,0.46
2023-02-09T16:32:57.080Z,0.36
2023-02-09T16:36:05.289Z,0.26
2023-02-09T16:39:18.926Z,0.17
2023-02-09T16:42:26.535Z,0.06
2023-02-09T16:45:38.809Z,-0.05
2023-02-09T16:48:47.917Z,-0.15
2023-02-09T16:51:56.314Z,-0.25
2023-02-09T16:55:07.717Z,-0.35
2023-02-09T16:58:16.706Z,-0.45
2023-02-09T17:01:24.216Z,-0.44
2023-02-09T17:04:30.678Z,0.08
2023-02-09T17:07:48.814Z,0.59
2023-02-09T17:11:00.554Z,0.96
2023-02-09T17:14:06.876Z,1.23
2023-02-09T17:17:18.988Z,1.44
2023-02-09T17:20:30.440Z,1.60
2023-02-09T17:23:37.043Z,1.56
2023-02-09T17:26:43.557Z,1.03
2023-02-09T17:29:49.874Z,0.59
2023-02-09T17:32:59.879Z,0.26
2023-02-09T17:39:33.106Z,-0.24
2023-02-09T17:42:38.383Z,-0.43
2023-02-09T17:45:49.094Z,-0.64
2023-02-09T17:48:55.587Z,-0.87
2023-02-09T17:52:01.846Z,-1.00
2023-02-09T17:55:06.789Z,-0.63
2023-02-09T17:58:13.577Z,-0.21
2023-02-09T18:01:27.441Z,0.12
2023-02-09T18:04:33.891Z,0.36
2023-02-09T18:07:40.262Z,0.54
2023-02-09T18:10:44.769Z,0.73
2023-02-09T18:13:51.100Z,0.86
2023-02-09T18:16:56.283Z,1.01
2023-02-09T18:20:02.584Z,1.08
2023-02-09T18:23:07.357Z,0.70
2023-02-09T18:26:13.706Z,0.14
2023-02-09T18:29:18.261Z,-0.29
2023-02-09T18:32:24.669Z,-0.61
2023-02-09T18:35:34.346Z,-0.86
2023-02-09T18:38:41.064Z,-1.11
2023-02-09T18:41:54.429Z,-1.31
2023-02-09T18:45:01.240Z,-1.52
2023-02-09T18:48:06.027Z,-1.63
2023-02-09T18:51:12.635Z,-1.26
2023-02-09T18:54:19.048Z,-0.84
2023-02-09T18:57:25.273Z,-0.56
2023-02-09T19:00:32.697Z,-0.37
2023-02-09T19:03:38.945Z,-0.20
2023-02-09T19:06:43.609Z,-0.02
2023-02-09T19:09:49.897Z,0.12
2023-02-09T19:12:55.527Z,0.27
2023-02-09T19:16:01.957Z,0.26
2023-02-09T19:19:09.617Z,-0.23
2023-02-09T19:22:19.816Z,-0.69
2023-02-09T19:25:29.018Z,-0.98
2023-02-09T19:28:36.265Z,-1.20
2023-02-09T19:31:42.863Z,-1.37
2023-02-09T19:34:50.000Z,-1.51
2023-02-09T19:37:57.651Z,-1.62
2023-02-09T19:41:12.055Z,-1.72
2023-02-09T19:44:18.534Z,-1.81
2023-02-09T19:47:27.488Z,-1.90
2023-02-09T19:50:33.910Z,-2.03
2023-02-09T19:53:40.169Z,-2.19
2023-02-09T19:56:45.326Z,-2.23
2023-02-09T19:59:51.664Z,-1.84
2023-02-09T20:02:56.284Z,-1.41
2023-02-09T20:06:05.750Z,-1.12
2023-02-09T20:09:12.470Z,-0.90
2023-02-09T20:12:19.279Z,-0.73
2023-02-09T20:15:25.727Z,-0.69
2023-02-09T20:18:32.171Z,-1.18
2023-02-09T20:21:36.992Z,-1.71
2023-02-09T20:24:44.377Z,-2.10
2023-02-09T20:27:51.825Z,-2.44
2023-02-09T20:30:58.176Z,-2.73
2023-02-09T20:34:05.165Z,-3.02
2023-02-09T20:37:12.167Z,-3.28
2023-02-09T20:40:18.590Z,-3.43
2023-02-09T20:43:42.602Z,-3.09
2023-02-09T20:46:58.087Z,-2.65
2023-02-09T20:50:05.166Z,-2.37
2023-02-09T20:53:11.542Z,-2.10
2023-02-09T20:56:17.758Z,-1.92
2023-02-09T20:59:25.504Z,-1.77
2023-02-09T21:02:31.811Z,-1.62
2023-02-09T21:05:38.655Z,-1.47
2023-02-09T21:08:44.911Z,-1.29
2023-02-09T21:11:49.408Z,-1.08
2023-02-09T21:14:56.739Z,-0.92
2023-02-09T21:18:03.116Z,-0.72
2023-02-09T21:21:08.093Z,-0.77
2023-02-09T21:24:14.434Z,-1.30
2023-02-09T21:27:19.394Z,-1.67
2023-02-09T21:30:26.068Z,-1.90
2023-02-09T21:33:32.283Z,-2.06
2023-02-09T21:36:38.103Z,-2.18
2023-02-09T21:39:42.768Z,-2.28
2023-02-09T21:42:49.994Z,-2.34
2023-02-09T21:45:56.292Z,-2.40
2023-02-09T21:49:02.934Z,-2.44
2023-02-09T21:52:09.670Z,-2.35
2023-02-09T21:55:17.099Z,-1.79
2023-02-09T21:58:23.355Z,-1.24
2023-02-09T22:01:27.906Z,-0.91
2023-02-09T22:04:34.355Z,-1.19
2023-02-09T22:07:40.776Z,-1.52
2023-02-09T22:10:48.901Z,-1.74
2023-02-09T22:13:56.357Z,-1.91
2023-02-09T22:17:02.920Z,-2.03
2023-02-09T22:20:11.107Z,-2.14
2023-02-09T22:23:18.669Z,-2.23
2023-02-09T22:26:24.861Z,-2.33
2023-02-09T22:29:33.374Z,-2.42
2023-02-09T22:32:39.854Z,-2.51
2023-02-09T22:35:46.409Z,-2.57
2023-02-09T22:38:52.825Z,-2.62
2023-02-09T22:41:59.331Z,-2.66
2023-02-09T22:45:06.145Z,-2.69
2023-02-09T22:48:13.614Z,-2.73
2023-02-09T22:51:20.809Z,-2.76
2023-02-09T22:54:27.038Z,-2.70
2023-02-09T22:57:31.630Z,-2.19
2023-02-09T23:00:37.821Z,-1.68
2023-02-09T23:03:44.169Z,-1.22
2023-02-09T23:06:50.466Z,-0.92
2023-02-09T23:09:55.367Z,-1.16
2023-02-09T23:13:01.595Z,-1.46
2023-02-09T23:16:16.012Z,-1.64
2023-02-09T23:19:22.930Z,-1.77
2023-02-09T23:22:29.240Z,-1.86
2023-02-09T23:25:33.839Z,-1.93
2023-02-09T23:28:40.205Z,-1.99
2023-02-09T23:31:45.160Z,-2.05
2023-02-09T23:34:51.384Z,-2.13
2023-02-09T23:37:57.840Z,-2.20
2023-02-09T23:41:08.957Z,-2.28
2023-02-09T23:44:15.297Z,-2.36
2023-02-09T23:47:21.541Z,-2.44
2023-02-09T23:50:27.720Z,-2.51
2023-02-09T23:53:35.262Z,-2.58
2023-02-09T23:56:42.067Z,-2.64
2023-02-09T23:59:48.500Z,-2.69
